Time;durP1;ratioP1;P1;durP2;ratioP2;P2;SDS_P1;SDS_P2;PMS_P1;PMS_P2;Temp;Humidity;BMP_temperature;BMP_pressure;BME280_temperature;BME280_humidity;BME280_pressure;Samples;Min_cycle;Max_cycle;Signal;HPM_P1;HPM_P2
2022/12/09 00:00:26;;;;;;;30.92;14.52;;;;;;;;;;5078155;28;20053;-70
2022/12/09 00:02:52;;;;;;;33.65;14.00;;;;;;;;;;5069472;28;20052;-69
2022/12/09 00:05:18;;;;;;;30.25;14.48;;;;;;;;;;5062446;28;20080;-69
2022/12/09 00:07:45;;;;;;;29.25;13.95;;;;;;;;;;5046257;28;20136;-68
2022/12/09 00:10:11;;;;;;;31.67;14.20;;;;;;;;;;5059215;28;20053;-69
2022/12/09 00:12:38;;;;;;;33.58;15.45;;;;;;;;;;5044532;28;20131;-69
2022/12/09 00:15:05;;;;;;;30.17;16.00;;;;;;;;;;5043282;28;20053;-69
2022/12/09 00:17:31;;;;;;;32.92;15.07;;;;;;;;;;5043607;28;20124;-69
2022/12/09 00:19:58;;;;;;;28.52;13.85;;;;;;;;;;5059039;28;20110;-69
2022/12/09 00:22:25;;;;;;;31.30;14.90;;;;;;;;;;5042720;28;20136;-69
2022/12/09 00:24:52;;;;;;;34.88;15.07;;;;;;;;;;5053596;28;20044;-69
2022/12/09 00:27:18;;;;;;;29.13;14.52;;;;;;;;;;5054834;28;20048;-69
2022/12/09 00:29:44;;;;;;;26.73;14.05;;;;;;;;;;5062327;28;20057;-69
2022/12/09 00:32:12;;;;;;;31.10;14.70;;;;;;;;;;5043484;28;20133;-69
2022/12/09 00:34:39;;;;;;;29.38;15.18;;;;;;;;;;5063930;28;20061;-68
2022/12/09 00:37:05;;;;;;;28.92;15.07;;;;;;;;;;5063285;28;20056;-69
2022/12/09 00:39:32;;;;;;;29.25;14.50;;;;;;;;;;5051543;28;20103;-68
2022/12/09 00:41:58;;;;;;;30.38;14.90;;;;;;;;;;5042977;28;20137;-69
2022/12/09 00:44:25;;;;;;;28.98;14.15;;;;;;;;;;5048198;28;20056;-69
2022/12/09 00:46:51;;;;;;;30.48;15.73;;;;;;;;;;5043318;28;20053;-69
2022/12/09 00:49:18;;;;;;;28.88;16.35;;;;;;;;;;5047079;28;20049;-69
2022/12/09 00:51:44;;;;;;;28.58;14.60;;;;;;;;;;5050570;28;20053;-69
2022/12/09 00:54:11;;;;;;;24.58;12.93;;;;;;;;;;5044648;28;20140;-69
2022/12/09 00:56:38;;;;;;;34.08;16.70;;;;;;;;;;5044754;28;20048;-69
2022/12/09 00:59:04;;;;;;;30.58;15.40;;;;;;;;;;5064951;28;20067;-69
2022/12/09 01:01:31;;;;;;;31.00;14.82;;;;;;;;;;5072655;28;20107;-69
2022/12/09 01:03:57;;;;;;;28.23;15.40;;;;;;;;;;5054714;28;20144;-69
2022/12/09 01:06:25;;;;;;;38.67;15.95;;;;;;;;;;5063291;28;20088;-69
2022/12/09 01:08:52;;;;;;;27.15;14.63;;;;;;;;;;5061067;28;20045;-69
2022/12/09 01:11:20;;;;;;;30.40;14.85;;;;;;;;;;5061397;28;20053;-69
2022/12/09 01:13:47;;;;;;;30.88;15.50;;;;;;;;;;5047435;28;20148;-68
2022/12/09 01:16:15;;;;;;;32.58;15.68;;;;;;;;;;5060864;28;20053;-68
2022/12/09 01:18:42;;;;;;;29.75;15.00;;;;;;;;;;5062740;28;20183;-69
2022/12/09 01:21:08;;;;;;;30.48;16.00;;;;;;;;;;5064356;28;20059;-68
2022/12/09 01:23:35;;;;;;;27.20;14.38;;;;;;;;;;5059507;28;20148;-68
2022/12/09 01:26:02;;;;;;;28.50;14.48;;;;;;;;;;5044816;28;20057;-69
2022/12/09 01:28:29;;;;;;;33.22;16.33;;;;;;;;;;5043525;28;20579;-69
2022/12/09 01:30:55;;;;;;;27.88;15.07;;;;;;;;;;5042831;28;20137;-69
2022/12/09 01:33:22;;;;;;;31.85;15.27;;;;;;;;;;5056523;28;20399;-68
2022/12/09 01:35:48;;;;;;;31.92;16.88;;;;;;;;;;5049458;28;20107;-69
2022/12/09 01:38:15;;;;;;;31.63;16.33;;;;;;;;;;5058833;28;20056;-69
2022/12/09 01:40:45;;;;;;;29.48;15.38;;;;;;;;;;5042579;28;20050;-69
2022/12/09 01:43:16;;;;;;;33.95;14.88;;;;;;;;;;5049377;28;20841;-69
2022/12/09 01:45:43;;;;;;;27.65;15.20;;;;;;;;;;5041975;28;20555;-69
2022/12/09 01:48:12;;;;;;;28.75;14.95;;;;;;;;;;5050714;28;20084;-69
2022/12/09 01:50:45;;;;;;;32.35;14.93;;;;;;;;;;5059182;28;20119;-68
2022/12/09 01:53:14;;;;;;;27.00;14.18;;;;;;;;;;5055740;28;20165;-69
2022/12/09 01:55:41;;;;;;;30.65;13.25;;;;;;;;;;5042582;28;20087;-68
2022/12/09 01:58:08;;;;;;;32.30;15.18;;;;;;;;;;5057893;28;20088;-69
2022/12/09 02:00:35;;;;;;;33.25;15.85;;;;;;;;;;5041351;28;20061;-69
2022/12/09 02:03:01;;;;;;;27.45;14.02;;;;;;;;;;5060942;28;20045;-68
2022/12/09 02:05:29;;;;;;;26.50;14.15;;;;;;;;;;5076951;28;20063;-68
2022/12/09 02:07:56;;;;;;;28.95;14.38;;;;;;;;;;5071292;28;20069;-68
2022/12/09 02:10:23;;;;;;;26.45;13.13;;;;;;;;;;5043120;28;20045;-68
2022/12/09 02:12:55;;;;;;;28.60;14.88;;;;;;;;;;5042699;28;20104;-68
2022/12/09 02:15:23;;;;;;;28.40;14.52;;;;;;;;;;5042604;28;20050;-68
2022/12/09 02:17:50;;;;;;;28.63;14.57;;;;;;;;;;5042623;28;20119;-69
2022/12/09 02:20:35;;;;;;;30.13;15.05;;;;;;;;;;5060624;28;20139;-69
2022/12/09 02:23:05;;;;;;;34.22;15.95;;;;;;;;;;5041300;28;20058;-69
2022/12/09 02:25:37;;;;;;;30.70;14.32;;;;;;;;;;5042782;28;20045;-68
2022/12/09 02:28:10;;;;;;;29.77;15.60;;;;;;;;;;5046977;28;20061;-68
2022/12/09 02:30:45;;;;;;;29.38;14.75;;;;;;;;;;5050260;28;20042;-69
2022/12/09 02:33:21;;;;;;;26.48;14.20;;;;;;;;;;5049416;28;20056;-69
2022/12/09 02:35:51;;;;;;;29.05;15.10;;;;;;;;;;5053171;28;20049;-68
2022/12/09 02:38:27;;;;;;;33.20;14.48;;;;;;;;;;5053161;28;20139;-68
2022/12/09 02:40:57;;;;;;;38.45;17.80;;;;;;;;;;5054207;28;20053;-69
2022/12/09 02:43:25;;;;;;;32.88;16.42;;;;;;;;;;5042317;28;20720;-69
2022/12/09 02:45:52;;;;;;;34.88;16.08;;;;;;;;;;5042790;28;20533;-69
2022/12/09 02:48:21;;;;;;;36.15;16.15;;;;;;;;;;5041680;28;20096;-69
2022/12/09 02:50:50;;;;;;;38.45;17.50;;;;;;;;;;5052911;28;20060;-69
2022/12/09 02:53:16;;;;;;;34.55;16.13;;;;;;;;;;5048234;28;20046;-69
2022/12/09 02:55:44;;;;;;;36.03;16.45;;;;;;;;;;5050878;28;20049;-69
2022/12/09 02:58:11;;;;;;;33.90;17.00;;;;;;;;;;5041286;28;20057;-69
2022/12/09 03:00:38;;;;;;;40.92;17.77;;;;;;;;;;5050703;28;20550;-69
2022/12/09 03:03:05;;;;;;;32.00;15.48;;;;;;;;;;5049538;28;20499;-69
2022/12/09 03:05:35;;;;;;;36.83;17.50;;;;;;;;;;5061124;28;20084;-69
2022/12/09 03:08:20;;;;;;;35.05;16.70;;;;;;;;;;5049099;28;20089;-69
2022/12/09 03:10:52;;;;;;;42.92;18.10;;;;;;;;;;5055617;28;20530;-69
2022/12/09 03:13:37;;;;;;;38.35;17.00;;;;;;;;;;5061640;28;20170;-68
2022/12/09 03:16:07;;;;;;;39.78;17.08;;;;;;;;;;5044793;28;20045;-69
2022/12/09 03:18:36;;;;;;;31.50;16.90;;;;;;;;;;5050460;28;20053;-69
2022/12/09 03:21:03;;;;;;;32.38;15.38;;;;;;;;;;5045079;28;20053;-69
2022/12/09 03:23:30;;;;;;;34.92;15.77;;;;;;;;;;5045120;28;20053;-69
2022/12/09 03:25:57;;;;;;;36.40;16.25;;;;;;;;;;5042243;28;20495;-68
2022/12/09 03:28:26;;;;;;;31.73;16.85;;;;;;;;;;5046989;28;20147;-69
2022/12/09 03:30:53;;;;;;;32.35;15.60;;;;;;;;;;5063780;28;20136;-68
2022/12/09 03:33:21;;;;;;;36.22;16.75;;;;;;;;;;5051078;28;20060;-71
2022/12/09 03:35:52;;;;;;;33.80;15.55;;;;;;;;;;5056182;28;20049;-67
2022/12/09 03:38:20;;;;;;;36.67;17.48;;;;;;;;;;5055181;28;20057;-70
2022/12/09 03:40:49;;;;;;;33.88;15.63;;;;;;;;;;5048070;28;20057;-70
2022/12/09 03:43:24;;;;;;;34.65;17.38;;;;;;;;;;5060301;28;20053;-70
2022/12/09 03:45:52;;;;;;;33.15;17.05;;;;;;;;;;5043734;28;20500;-67
2022/12/09 03:48:18;;;;;;;33.35;16.65;;;;;;;;;;5045974;28;20061;-67
2022/12/09 03:50:48;;;;;;;33.03;16.58;;;;;;;;;;5060031;28;20080;-70
2022/12/09 03:53:16;;;;;;;29.35;14.45;;;;;;;;;;5060468;28;20508;-69
2022/12/09 03:56:04;;;;;;;34.58;16.42;;;;;;;;;;5044331;28;20058;-70
2022/12/09 03:58:32;;;;;;;31.65;15.90;;;;;;;;;;5059764;28;20522;-70
2022/12/09 04:00:59;;;;;;;36.55;17.08;;;;;;;;;;5057261;28;20053;-67
2022/12/09 04:03:26;;;;;;;23.80;13.13;;;;;;;;;;5043623;28;20571;-70
2022/12/09 04:05:53;;;;;;;32.80;14.90;;;;;;;;;;5061263;28;20507;-67
2022/12/09 04:08:19;;;;;;;29.73;15.10;;;;;;;;;;5061835;28;20059;-70
2022/12/09 04:10:46;;;;;;;30.50;15.38;;;;;;;;;;5046067;28;20148;-70
2022/12/09 04:13:12;;;;;;;33.50;16.08;;;;;;;;;;5042244;28;20053;-69
2022/12/09 04:15:38;;;;;;;28.00;14.55;;;;;;;;;;5047868;28;20067;-70
2022/12/09 04:18:05;;;;;;;29.40;15.18;;;;;;;;;;5057856;28;20420;-70
2022/12/09 04:20:31;;;;;;;31.08;14.15;;;;;;;;;;5043620;28;20056;-69
2022/12/09 04:22:58;;;;;;;27.27;13.57;;;;;;;;;;5061690;28;20072;-67
2022/12/09 04:25:24;;;;;;;29.77;14.27;;;;;;;;;;5043180;28;20049;-69
2022/12/09 04:27:51;;;;;;;35.88;15.65;;;;;;;;;;5043995;28;20538;-70
2022/12/09 04:30:18;;;;;;;28.42;14.57;;;;;;;;;;5061132;28;20081;-68
2022/12/09 04:32:44;;;;;;;31.10;14.82;;;;;;;;;;5044168;28;20049;-70
2022/12/09 04:35:11;;;;;;;31.98;15.13;;;;;;;;;;5061791;28;20072;-70
2022/12/09 04:37:38;;;;;;;27.58;14.07;;;;;;;;;;5045202;28;20096;-70
2022/12/09 04:40:05;;;;;;;32.40;15.43;;;;;;;;;;5059297;28;20053;-70
2022/12/09 04:42:32;;;;;;;25.27;13.75;;;;;;;;;;5043151;28;20590;-70
2022/12/09 04:44:59;;;;;;;25.30;13.05;;;;;;;;;;5069340;28;20052;-70
2022/12/09 04:47:26;;;;;;;29.10;14.32;;;;;;;;;;5062868;28;20064;-69
2022/12/09 04:49:53;;;;;;;29.00;15.13;;;;;;;;;;5058783;28;20050;-69
2022/12/09 04:52:19;;;;;;;30.20;15.20;;;;;;;;;;5049139;28;20068;-70
2022/12/09 04:54:47;;;;;;;31.58;16.20;;;;;;;;;;5053768;28;20084;-70
2022/12/09 04:57:14;;;;;;;35.55;15.85;;;;;;;;;;5058087;28;20529;-70
2022/12/09 04:59:40;;;;;;;31.00;16.20;;;;;;;;;;5042736;28;20061;-70
2022/12/09 05:02:07;;;;;;;29.23;15.05;;;;;;;;;;5062485;28;20049;-69
2022/12/09 05:04:34;;;;;;;28.50;14.00;;;;;;;;;;5060363;28;20056;-69
2022/12/09 05:07:00;;;;;;;32.45;15.07;;;;;;;;;;5054552;28;20515;-69
2022/12/09 05:09:27;;;;;;;32.40;15.75;;;;;;;;;;5043182;28;20053;-69
2022/12/09 05:11:55;;;;;;;35.17;16.02;;;;;;;;;;5062035;28;20100;-69
2022/12/09 05:14:22;;;;;;;34.28;16.90;;;;;;;;;;5049964;28;20136;-69
2022/12/09 05:16:48;;;;;;;37.50;14.90;;;;;;;;;;5055924;28;20159;-68
2022/12/09 05:19:15;;;;;;;32.53;15.55;;;;;;;;;;5050485;28;20045;-70
2022/12/09 05:21:45;;;;;;;32.95;16.13;;;;;;;;;;5061358;28;20049;-68
2022/12/09 05:24:12;;;;;;;31.42;15.75;;;;;;;;;;5058449;28;20050;-68
2022/12/09 05:26:39;;;;;;;28.88;14.02;;;;;;;;;;5065848;28;20059;-68
2022/12/09 05:29:06;;;;;;;26.27;13.95;;;;;;;;;;5063319;28;20063;-68
2022/12/09 05:31:33;;;;;;;29.10;14.05;;;;;;;;;;5058492;28;20080;-68
2022/12/09 05:34:00;;;;;;;32.15;14.90;;;;;;;;;;5042602;28;20057;-68
2022/12/09 05:36:26;;;;;;;29.52;14.70;;;;;;;;;;5041824;28;20121;-68
2022/12/09 05:38:53;;;;;;;34.08;15.90;;;;;;;;;;5042381;28;20057;-68
2022/12/09 05:41:21;;;;;;;34.28;16.25;;;;;;;;;;5042365;28;20049;-68
2022/12/09 05:43:48;;;;;;;32.25;15.73;;;;;;;;;;5054777;28;20122;-67
2022/12/09 05:46:15;;;;;;;35.40;15.55;;;;;;;;;;5054994;28;20049;-68
2022/12/09 05:48:42;;;;;;;31.45;14.88;;;;;;;;;;5042726;28;20413;-67
2022/12/09 05:51:15;;;;;;;34.58;15.93;;;;;;;;;;5047701;28;20135;-68
2022/12/09 05:53:41;;;;;;;36.88;16.15;;;;;;;;;;5048834;28;20049;-68
2022/12/09 05:56:08;;;;;;;33.47;14.50;;;;;;;;;;5062245;28;20085;-68
2022/12/09 05:58:35;;;;;;;32.20;14.57;;;;;;;;;;5061815;28;20061;-68
2022/12/09 06:01:05;;;;;;;33.17;14.57;;;;;;;;;;5061784;28;20057;-70
2022/12/09 06:03:31;;;;;;;36.97;14.10;;;;;;;;;;5058485;28;20104;-67
2022/12/09 06:05:58;;;;;;;48.63;15.45;;;;;;;;;;5062463;28;20057;-70
2022/12/09 06:08:25;;;;;;;35.83;15.50;;;;;;;;;;5062004;28;20045;-69
2022/12/09 06:10:52;;;;;;;39.10;15.95;;;;;;;;;;5062149;28;20099;-70
2022/12/09 06:13:18;;;;;;;49.85;15.80;;;;;;;;;;5061645;28;20053;-68
2022/12/09 06:15:45;;;;;;;61.25;16.23;;;;;;;;;;5060183;28;20045;-70
2022/12/09 06:18:12;;;;;;;109.40;16.98;;;;;;;;;;5062175;28;20103;-70
2022/12/09 06:20:40;;;;;;;69.72;17.50;;;;;;;;;;5054219;28;20122;-70
2022/12/09 06:23:07;;;;;;;87.78;15.38;;;;;;;;;;5081574;28;20107;-70
2022/12/09 06:25:34;;;;;;;84.18;17.30;;;;;;;;;;5050183;28;20222;-70
2022/12/09 06:28:00;;;;;;;33.58;14.38;;;;;;;;;;5042365;28;20445;-70
2022/12/09 06:30:27;;;;;;;144.48;20.67;;;;;;;;;;5043499;28;20057;-70
2022/12/09 06:32:53;;;;;;;46.03;14.40;;;;;;;;;;5042335;28;20053;-70
2022/12/09 06:35:20;;;;;;;108.70;17.42;;;;;;;;;;5054467;28;20057;-69
2022/12/09 06:37:49;;;;;;;33.55;12.65;;;;;;;;;;5063110;28;20054;-70
2022/12/09 06:40:16;;;;;;;37.72;11.90;;;;;;;;;;5063871;28;20052;-69
2022/12/09 06:42:42;;;;;;;129.10;18.08;;;;;;;;;;5065129;28;20060;-71
2022/12/09 06:45:09;;;;;;;30.45;10.65;;;;;;;;;;5064480;28;20495;-71
2022/12/09 06:47:36;;;;;;;35.38;11.65;;;;;;;;;;5064512;28;20536;-70
2022/12/09 06:50:04;;;;;;;46.33;10.70;;;;;;;;;;5061129;28;20091;-70
2022/12/09 06:52:33;;;;;;;132.95;14.40;;;;;;;;;;5049529;28;20064;-70
2022/12/09 06:55:00;;;;;;;88.80;13.27;;;;;;;;;;5065697;28;20105;-70
2022/12/09 06:57:27;;;;;;;77.35;13.80;;;;;;;;;;5051800;28;20057;-70
2022/12/09 06:59:54;;;;;;;42.53;10.10;;;;;;;;;;5075939;28;20494;-70
2022/12/09 07:02:20;;;;;;;27.63;10.40;;;;;;;;;;5059153;28;20045;-70
2022/12/09 07:04:51;;;;;;;49.33;11.50;;;;;;;;;;5069877;28;20059;-70
2022/12/09 07:07:18;;;;;;;65.88;12.32;;;;;;;;;;5085286;28;20140;-70
2022/12/09 07:09:45;;;;;;;31.13;11.57;;;;;;;;;;5077322;28;20049;-70
2022/12/09 07:12:12;;;;;;;22.92;11.15;;;;;;;;;;5074495;28;20199;-68
2022/12/09 07:14:38;;;;;;;38.42;12.85;;;;;;;;;;5065446;28;20046;-70
2022/12/09 07:17:05;;;;;;;32.20;11.77;;;;;;;;;;5072721;28;20123;-70
2022/12/09 07:19:32;;;;;;;51.78;12.57;;;;;;;;;;5078228;28;20092;-69
2022/12/09 07:21:59;;;;;;;25.05;10.95;;;;;;;;;;5056180;28;20052;-69
2022/12/09 07:24:26;;;;;;;83.82;15.70;;;;;;;;;;5078838;28;20053;-69
2022/12/09 07:26:53;;;;;;;56.03;13.75;;;;;;;;;;5082332;28;20052;-69
2022/12/09 07:29:19;;;;;;;36.70;13.10;;;;;;;;;;5078818;28;20143;-70
2022/12/09 07:31:46;;;;;;;45.03;13.75;;;;;;;;;;5064676;28;20132;-69
2022/12/09 07:34:14;;;;;;;31.77;13.65;;;;;;;;;;5062581;28;20060;-69
2022/12/09 07:36:41;;;;;;;26.20;12.48;;;;;;;;;;5070965;28;20058;-69
2022/12/09 07:39:14;;;;;;;32.30;13.77;;;;;;;;;;5075559;28;20606;-69
2022/12/09 07:41:42;;;;;;;32.15;13.70;;;;;;;;;;5079943;28;20056;-69
2022/12/09 07:44:09;;;;;;;36.70;16.75;;;;;;;;;;5081024;28;20536;-69
2022/12/09 07:46:37;;;;;;;38.50;16.67;;;;;;;;;;5078553;28;20390;-70
2022/12/09 07:49:04;;;;;;;38.85;17.05;;;;;;;;;;5062004;28;20076;-70
2022/12/09 07:51:31;;;;;;;51.70;17.33;;;;;;;;;;5060548;28;20498;-69
2022/12/09 07:53:58;;;;;;;57.65;20.35;;;;;;;;;;5083475;28;20571;-69
2022/12/09 07:56:27;;;;;;;77.32;19.55;;;;;;;;;;5082663;28;20055;-69
2022/12/09 07:58:53;;;;;;;52.40;18.13;;;;;;;;;;5081671;28;20053;-69
2022/12/09 08:01:22;;;;;;;116.88;22.35;;;;;;;;;;5074132;28;20085;-70
2022/12/09 08:03:49;;;;;;;93.75;21.90;;;;;;;;;;5062688;28;20502;-70
2022/12/09 08:06:17;;;;;;;44.67;17.95;;;;;;;;;;5066382;28;20106;-69
2022/12/09 08:08:44;;;;;;;46.05;18.70;;;;;;;;;;5083750;28;20041;-68
2022/12/09 08:11:13;;;;;;;40.40;17.08;;;;;;;;;;5076902;28;20238;-68
2022/12/09 08:13:42;;;;;;;50.10;19.05;;;;;;;;;;5074678;28;20055;-69
2022/12/09 08:16:12;;;;;;;53.40;20.95;;;;;;;;;;5069528;28;20102;-69
2022/12/09 08:18:39;;;;;;;81.90;22.48;;;;;;;;;;5084626;28;20057;-69
2022/12/09 08:21:07;;;;;;;53.03;19.55;;;;;;;;;;5072881;28;20552;-69
2022/12/09 08:23:33;;;;;;;81.88;23.35;;;;;;;;;;5056264;28;20053;-69
2022/12/09 08:26:00;;;;;;;85.28;21.27;;;;;;;;;;5049691;28;20054;-69
2022/12/09 08:28:27;;;;;;;68.93;21.92;;;;;;;;;;5043628;28;20050;-68
2022/12/09 08:30:54;;;;;;;91.00;22.30;;;;;;;;;;5059329;28;20088;-69
2022/12/09 08:33:21;;;;;;;65.10;23.42;;;;;;;;;;5060262;28;20148;-68
2022/12/09 08:35:48;;;;;;;89.15;22.38;;;;;;;;;;5061082;28;20046;-69
2022/12/09 08:38:14;;;;;;;117.63;22.85;;;;;;;;;;5043616;28;20084;-68
2022/12/09 08:40:41;;;;;;;80.88;23.77;;;;;;;;;;5056997;28;20617;-69
2022/12/09 08:43:08;;;;;;;79.78;23.48;;;;;;;;;;5062796;28;20056;-69
2022/12/09 08:45:35;;;;;;;117.07;27.23;;;;;;;;;;5067269;28;20181;-68
2022/12/09 08:48:02;;;;;;;143.80;22.67;;;;;;;;;;5081961;28;20056;-70
2022/12/09 08:50:29;;;;;;;139.30;23.77;;;;;;;;;;5085158;28;20048;-70
2022/12/09 08:52:55;;;;;;;195.45;23.27;;;;;;;;;;5085061;28;20076;-70
2022/12/09 08:55:22;;;;;;;227.02;24.25;;;;;;;;;;5072806;28;20140;-70
2022/12/09 08:57:48;;;;;;;378.15;34.85;;;;;;;;;;5043300;28;20459;-69
2022/12/09 09:00:15;;;;;;;168.57;22.55;;;;;;;;;;5050387;28;20169;-69
2022/12/09 09:02:42;;;;;;;270.25;28.10;;;;;;;;;;5062828;28;20060;-69
2022/12/09 09:05:09;;;;;;;251.15;28.65;;;;;;;;;;5052145;28;20064;-69
2022/12/09 09:07:36;;;;;;;82.00;19.80;;;;;;;;;;5066109;28;20053;-69
2022/12/09 09:10:03;;;;;;;65.18;18.55;;;;;;;;;;5075736;28;20053;-69
2022/12/09 09:12:30;;;;;;;102.65;20.77;;;;;;;;;;5076673;28;20061;-69
2022/12/09 09:15:02;;;;;;;136.98;22.52;;;;;;;;;;5077307;28;20056;-69
2022/12/09 09:17:29;;;;;;;107.32;21.33;;;;;;;;;;5062758;28;20549;-69
2022/12/09 09:19:56;;;;;;;56.72;19.55;;;;;;;;;;5063387;28;20049;-69
2022/12/09 09:22:24;;;;;;;48.03;19.20;;;;;;;;;;5062105;28;20045;-69
2022/12/09 09:24:52;;;;;;;63.88;20.38;;;;;;;;;;5063617;28;20138;-69
2022/12/09 09:27:19;;;;;;;78.75;18.73;;;;;;;;;;5067354;28;20056;-69
2022/12/09 09:29:46;;;;;;;33.88;17.70;;;;;;;;;;5080315;28;20079;-70
2022/12/09 09:32:12;;;;;;;79.80;19.08;;;;;;;;;;5077607;28;20074;-69
2022/12/09 09:34:39;;;;;;;59.20;19.55;;;;;;;;;;5082000;28;20044;-70
2022/12/09 09:37:07;;;;;;;52.38;18.88;;;;;;;;;;5056997;28;20057;-71
2022/12/09 09:39:33;;;;;;;39.38;18.33;;;;;;;;;;5062889;28;20518;-70
2022/12/09 09:42:01;;;;;;;93.90;20.90;;;;;;;;;;5063193;28;20132;-70
2022/12/09 09:44:34;;;;;;;46.10;16.40;;;;;;;;;;5062735;28;20049;-70
2022/12/09 09:47:02;;;;;;;31.98;18.15;;;;;;;;;;5041827;28;20388;-69
2022/12/09 09:49:35;;;;;;;32.13;16.73;;;;;;;;;;5042729;28;20455;-70
2022/12/09 09:52:04;;;;;;;45.63;16.48;;;;;;;;;;5042779;28;20709;-70
2022/12/09 09:54:31;;;;;;;40.33;16.27;;;;;;;;;;5058288;28;20053;-70
2022/12/09 09:57:15;;;;;;;41.90;18.95;;;;;;;;;;5080064;28;20045;-70
2022/12/09 09:59:50;;;;;;;36.00;17.65;;;;;;;;;;5064437;28;20510;-70
2022/12/09 10:02:29;;;;;;;59.38;20.35;;;;;;;;;;5074167;28;20049;-70
2022/12/09 10:05:12;;;;;;;38.05;18.95;;;;;;;;;;5069699;28;20056;-70
2022/12/09 10:07:41;;;;;;;37.95;18.88;;;;;;;;;;5065573;28;20053;-70
2022/12/09 10:10:20;;;;;;;39.47;19.52;;;;;;;;;;5077036;28;20053;-70
2022/12/09 10:13:12;;;;;;;38.33;18.90;;;;;;;;;;5057398;28;20136;-70
2022/12/09 10:15:47;;;;;;;47.35;20.83;;;;;;;;;;5080095;28;20056;-70
2022/12/09 10:18:25;;;;;;;43.83;20.95;;;;;;;;;;5076945;28;20714;-70
2022/12/09 10:20:52;;;;;;;36.20;18.58;;;;;;;;;;5065015;28;20564;-69
2022/12/09 10:23:19;;;;;;;41.95;20.27;;;;;;;;;;5084948;28;20064;-68
2022/12/09 10:25:50;;;;;;;40.22;19.80;;;;;;;;;;5072545;28;20739;-70
2022/12/09 10:28:21;;;;;;;39.88;20.63;;;;;;;;;;5058839;28;20063;-69
2022/12/09 10:30:49;;;;;;;37.35;19.02;;;;;;;;;;5078964;28;20446;-69
2022/12/09 10:33:19;;;;;;;36.78;18.45;;;;;;;;;;5084506;28;20135;-69
2022/12/09 10:35:46;;;;;;;45.60;21.85;;;;;;;;;;5075699;28;20168;-69
2022/12/09 10:38:16;;;;;;;42.17;20.92;;;;;;;;;;5075786;28;20479;-71
2022/12/09 10:40:45;;;;;;;33.83;17.92;;;;;;;;;;5080437;28;20056;-69
2022/12/09 10:43:42;;;;;;;38.42;19.70;;;;;;;;;;5073698;28;20045;-70
2022/12/09 10:46:19;;;;;;;34.60;17.92;;;;;;;;;;5069358;28;20103;-70
2022/12/09 10:48:47;;;;;;;39.38;19.90;;;;;;;;;;5063428;28;20654;-70
2022/12/09 10:51:28;;;;;;;40.95;19.92;;;;;;;;;;5064684;28;20044;-69
2022/12/09 10:54:03;;;;;;;40.40;20.30;;;;;;;;;;5074764;28;20160;-70
2022/12/09 10:56:29;;;;;;;40.38;19.15;;;;;;;;;;5086314;28;20128;-70
2022/12/09 10:59:12;;;;;;;37.63;19.73;;;;;;;;;;5086033;28;20106;-70
2022/12/09 11:01:58;;;;;;;33.22;18.85;;;;;;;;;;5071565;28;20544;-69
2022/12/09 11:04:45;;;;;;;39.75;20.27;;;;;;;;;;5079004;28;21221;-70
2022/12/09 11:07:12;;;;;;;34.10;17.63;;;;;;;;;;5069047;28;20052;-73
2022/12/09 11:09:42;;;;;;;39.53;18.15;;;;;;;;;;5062578;28;20076;-71
2022/12/09 11:12:18;;;;;;;36.83;18.80;;;;;;;;;;5064165;28;20051;-70
2022/12/09 11:14:53;;;;;;;37.58;19.98;;;;;;;;;;5081508;28;20063;-70
2022/12/09 11:17:26;;;;;;;38.78;18.73;;;;;;;;;;5064216;28;20156;-70
2022/12/09 11:19:55;;;;;;;30.17;16.92;;;;;;;;;;5075070;28;20064;-70
2022/12/09 11:22:38;;;;;;;37.08;19.17;;;;;;;;;;5073336;28;20061;-69
2022/12/09 11:25:26;;;;;;;31.98;16.70;;;;;;;;;;5064325;28;20056;-69
2022/12/09 11:27:58;;;;;;;31.63;16.30;;;;;;;;;;5056711;28;20111;-69
2022/12/09 11:30:33;;;;;;;37.13;17.42;;;;;;;;;;5064854;28;20057;-68
2022/12/09 11:33:12;;;;;;;35.97;18.13;;;;;;;;;;5085176;28;20450;-71
2022/12/09 11:35:42;;;;;;;37.85;18.73;;;;;;;;;;5085786;28;20051;-69
2022/12/09 11:38:12;;;;;;;41.08;17.52;;;;;;;;;;5085163;28;20139;-71
2022/12/09 11:40:38;;;;;;;35.72;18.02;;;;;;;;;;5084609;28;20055;-71
2022/12/09 11:43:04;;;;;;;34.90;17.35;;;;;;;;;;5076068;28;20057;-69
2022/12/09 11:45:35;;;;;;;43.38;18.73;;;;;;;;;;5063798;28;20488;-72
2022/12/09 11:48:06;;;;;;;38.15;17.75;;;;;;;;;;5050284;28;20132;-72
2022/12/09 11:50:54;;;;;;;35.00;17.27;;;;;;;;;;5063259;28;20532;-71
2022/12/09 11:53:25;;;;;;;33.25;16.02;;;;;;;;;;5058079;28;20060;-72
2022/12/09 11:56:14;;;;;;;35.25;16.60;;;;;;;;;;5069089;28;20558;-72
2022/12/09 11:58:59;;;;;;;37.80;19.00;;;;;;;;;;5065418;28;20078;-72
2022/12/09 12:01:30;;;;;;;38.08;17.15;;;;;;;;;;5064095;28;20053;-72
2022/12/09 12:04:00;;;;;;;34.25;17.50;;;;;;;;;;5050316;28;20053;-71
2022/12/09 12:06:31;;;;;;;30.85;16.50;;;;;;;;;;5057061;28;20506;-71
2022/12/09 12:09:09;;;;;;;33.70;16.88;;;;;;;;;;5062716;28;20056;-72
2022/12/09 12:11:39;;;;;;;34.83;16.65;;;;;;;;;;5059247;28;20053;-72
2022/12/09 12:14:13;;;;;;;31.33;16.55;;;;;;;;;;5063848;28;20060;-71
2022/12/09 12:16:43;;;;;;;31.80;16.48;;;;;;;;;;5064396;28;20144;-70
2022/12/09 12:19:39;;;;;;;34.50;17.48;;;;;;;;;;5064506;28;20053;-70
2022/12/09 12:22:24;;;;;;;33.92;16.10;;;;;;;;;;5037696;28;20143;-71
2022/12/09 12:25:05;;;;;;;38.10;17.40;;;;;;;;;;5064316;28;20041;-71
2022/12/09 12:27:49;;;;;;;33.75;18.00;;;;;;;;;;5069375;28;20049;-71
2022/12/09 12:30:18;;;;;;;32.88;17.92;;;;;;;;;;5061066;28;20057;-69
2022/12/09 12:32:56;;;;;;;35.38;18.10;;;;;;;;;;5064484;28;20055;-69
2022/12/09 12:35:44;;;;;;;32.65;16.80;;;;;;;;;;5049250;28;20053;-70
2022/12/09 12:38:28;;;;;;;33.60;18.10;;;;;;;;;;5052737;28;20059;-71
2022/12/09 12:41:07;;;;;;;35.08;17.23;;;;;;;;;;5068091;28;20049;-70
2022/12/09 12:46:43;;;;;;;32.60;19.00;;;;;;;;;;5060135;28;20526;-71
2022/12/09 12:49:23;;;;;;;27.52;15.48;;;;;;;;;;5062378;28;20045;-69
2022/12/09 12:52:08;;;;;;;33.42;18.48;;;;;;;;;;5069057;28;20589;-70
2022/12/09 12:54:54;;;;;;;36.90;18.35;;;;;;;;;;5067923;28;20503;-71
2022/12/09 12:57:24;;;;;;;35.55;19.85;;;;;;;;;;5064653;28;20056;-71
2022/12/09 12:59:51;;;;;;;41.72;18.65;;;;;;;;;;5052562;28;20504;-71
2022/12/09 13:02:17;;;;;;;33.65;17.48;;;;;;;;;;5057715;28;20515;-71
2022/12/09 13:04:49;;;;;;;34.90;19.42;;;;;;;;;;5059205;28;20581;-71
2022/12/09 13:07:38;;;;;;;39.25;17.15;;;;;;;;;;5054147;28;20140;-70
2022/12/09 13:10:15;;;;;;;35.20;19.10;;;;;;;;;;5063096;28;20052;-71
2022/12/09 13:12:55;;;;;;;29.58;16.50;;;;;;;;;;5073879;28;20506;-71
2022/12/09 13:15:31;;;;;;;32.15;17.02;;;;;;;;;;5070517;28;20057;-71
2022/12/09 13:18:00;;;;;;;28.98;16.42;;;;;;;;;;5055009;28;20085;-70
2022/12/09 13:20:29;;;;;;;30.17;15.35;;;;;;;;;;5059425;28;20087;-70
2022/12/09 13:22:59;;;;;;;35.65;18.48;;;;;;;;;;5071227;28;20053;-70
2022/12/09 13:25:42;;;;;;;32.13;17.38;;;;;;;;;;5062371;28;20111;-71
2022/12/09 13:28:14;;;;;;;32.00;17.40;;;;;;;;;;5065618;28;20575;-71
2022/12/09 13:30:46;;;;;;;32.35;17.27;;;;;;;;;;5061598;28;20067;-69
2022/12/09 13:33:19;;;;;;;32.47;17.33;;;;;;;;;;5061870;28;20502;-71
2022/12/09 13:35:45;;;;;;;32.13;17.52;;;;;;;;;;5071254;28;20057;-69
2022/12/09 13:38:44;;;;;;;35.10;19.40;;;;;;;;;;5052748;28;20049;-70
2022/12/09 13:41:25;;;;;;;34.10;17.60;;;;;;;;;;5033305;28;20058;-70
2022/12/09 13:43:53;;;;;;;34.33;18.48;;;;;;;;;;5050191;28;20059;-70
2022/12/09 13:46:20;;;;;;;34.17;17.88;;;;;;;;;;5063698;28;20205;-69
2022/12/09 13:48:47;;;;;;;29.83;16.38;;;;;;;;;;5063632;28;20053;-69
2022/12/09 13:51:14;;;;;;;29.30;15.63;;;;;;;;;;5054308;28;20056;-70
2022/12/09 13:53:45;;;;;;;32.63;16.88;;;;;;;;;;5054784;28;20045;-68
2022/12/09 13:56:15;;;;;;;30.77;16.92;;;;;;;;;;5073874;28;20610;-69
2022/12/09 13:58:56;;;;;;;28.60;16.20;;;;;;;;;;5058821;28;20057;-70
2022/12/09 14:01:27;;;;;;;33.60;17.27;;;;;;;;;;5043830;28;20128;-68
2022/12/09 14:04:13;;;;;;;29.88;16.20;;;;;;;;;;5042025;28;20061;-69
2022/12/09 14:06:39;;;;;;;36.88;17.83;;;;;;;;;;5056734;28;20048;-68
2022/12/09 14:09:20;;;;;;;31.90;16.70;;;;;;;;;;5047101;28;20574;-69
2022/12/09 14:11:48;;;;;;;29.30;16.08;;;;;;;;;;5068548;28;20110;-71
2022/12/09 14:14:26;;;;;;;31.80;17.58;;;;;;;;;;5060974;28;20594;-69
2022/12/09 14:16:52;;;;;;;28.98;16.88;;;;;;;;;;5059958;28;20056;-69
2022/12/09 14:19:22;;;;;;;30.83;17.00;;;;;;;;;;5061762;28;20136;-70
2022/12/09 14:22:10;;;;;;;39.90;23.13;;;;;;;;;;5055855;28;20565;-69
2022/12/09 14:24:36;;;;;;;36.05;20.63;;;;;;;;;;5065529;28;20147;-69
2022/12/09 14:27:03;;;;;;;30.88;17.95;;;;;;;;;;5068875;28;20126;-71
2022/12/09 14:29:48;;;;;;;29.65;17.50;;;;;;;;;;5075489;28;20052;-69
2022/12/09 14:32:35;;;;;;;30.60;17.33;;;;;;;;;;5066199;28;20049;-70
2022/12/09 14:35:01;;;;;;;32.15;17.25;;;;;;;;;;5049904;28;20045;-69